Time;durP1;ratioP1;P1;durP2;ratioP2;P2;SDS_P1;SDS_P2;PMS_P1;PMS_P2;Temp;Humidity;BMP_temperature;BMP_pressure;BME280_temperature;BME280_humidity;BME280_pressure;Samples;Min_cycle;Max_cycle;Signal;HPM_P1;HPM_P2
2022/01/09 00:02:21;;;;;;;1.40;1.00;;;;;;;20.56;34.95;98255.13;5112454;28;20047;-54
2022/01/09 00:04:46;;;;;;;1.58;0.90;;;;;;;20.57;34.84;98248.41;5112297;28;20448;-54
2022/01/09 00:07:11;;;;;;;1.30;0.90;;;;;;;20.58;35.03;98258.34;5112388;28;20043;-54
2022/01/09 00:09:38;;;;;;;1.60;1.05;;;;;;;20.57;34.93;98250.38;5112387;28;20055;-54
2022/01/09 00:12:04;;;;;;;1.33;0.90;;;;;;;20.56;34.97;98243.25;5112422;28;20043;-55
2022/01/09 00:14:29;;;;;;;1.17;0.80;;;;;;;20.57;35.06;98239.25;5112114;28;20067;-56
2022/01/09 00:16:54;;;;;;;1.10;0.70;;;;;;;20.58;35.14;98238.09;5112609;28;20522;-55
2022/01/09 00:19:20;;;;;;;1.25;0.77;;;;;;;20.57;35.01;98230.94;5112439;28;20044;-53
2022/01/09 00:21:45;;;;;;;1.67;0.90;;;;;;;20.56;35.13;98240.47;5112400;28;20035;-54
2022/01/09 00:24:11;;;;;;;1.17;0.70;;;;;;;20.57;34.99;98244.81;5111906;28;20067;-54
2022/01/09 00:26:37;;;;;;;0.80;0.60;;;;;;;20.56;35.16;98244.03;5112072;28;20042;-54
2022/01/09 00:29:03;;;;;;;0.70;0.50;;;;;;;20.57;35.10;98244.81;5112032;28;20039;-54
2022/01/09 00:31:28;;;;;;;1.20;0.75;;;;;;;20.57;34.95;98242.03;5111852;28;20050;-60
2022/01/09 00:33:53;;;;;;;1.15;0.70;;;;;;;20.57;35.28;98236.47;5111434;28;20040;-53
2022/01/09 00:36:19;;;;;;;1.30;0.70;;;;;;;20.58;35.20;98233.31;5111455;28;20047;-54
2022/01/09 00:38:44;;;;;;;0.77;0.57;;;;;;;20.57;35.04;98240.09;5111904;28;20579;-54
2022/01/09 00:41:10;;;;;;;0.90;0.68;;;;;;;20.57;35.17;98244.81;5111702;28;20143;-54
2022/01/09 00:43:35;;;;;;;1.23;0.70;;;;;;;20.57;35.27;98245.63;5111669;28;20488;-60
2022/01/09 00:46:00;;;;;;;1.40;0.88;;;;;;;20.55;35.16;98275.78;5111734;28;20050;-60
2022/01/09 00:48:26;;;;;;;0.82;0.60;;;;;;;20.58;35.14;98271.44;5111677;28;20453;-60
2022/01/09 00:50:51;;;;;;;1.13;0.65;;;;;;;20.57;35.11;98275.38;5111494;28;20035;-60
2022/01/09 00:53:16;;;;;;;1.00;0.60;;;;;;;20.58;35.19;98274.22;5111257;28;20044;-59
2022/01/09 00:55:42;;;;;;;0.98;0.60;;;;;;;20.58;35.40;98302.78;5111286;28;20138;-60
2022/01/09 00:58:07;;;;;;;0.88;0.47;;;;;;;20.58;35.29;98315.88;5111427;28;20066;-60
2022/01/09 01:00:35;;;;;;;0.63;0.50;;;;;;;20.57;35.16;98295.66;5111515;28;20055;-60
2022/01/09 01:03:00;;;;;;;0.85;0.60;;;;;;;20.58;35.13;98290.88;5111209;28;20043;-61
2022/01/09 01:05:26;;;;;;;0.77;0.45;;;;;;;20.58;35.16;98302.00;5111435;28;20089;-60
2022/01/09 01:07:51;;;;;;;0.95;0.50;;;;;;;20.58;35.37;98313.09;5111490;28;20128;-60
2022/01/09 01:10:17;;;;;;;1.13;0.70;;;;;;;20.57;35.37;98314.28;5111390;28;20063;-60
2022/01/09 01:12:42;;;;;;;1.00;0.55;;;;;;;20.57;35.33;98314.28;5110218;28;20036;-60
2022/01/09 01:15:09;;;;;;;1.30;0.68;;;;;;;20.58;35.30;98313.88;5110822;28;20047;-61
2022/01/09 01:17:35;;;;;;;0.93;0.57;;;;;;;20.58;35.51;98321.44;5110809;28;20109;-60
2022/01/09 01:20:01;;;;;;;1.15;0.73;;;;;;;20.58;35.55;98321.44;5111115;28;20403;-60
2022/01/09 01:22:28;;;;;;;0.52;0.50;;;;;;;20.56;35.40;98318.25;5110915;28;20032;-55
2022/01/09 01:24:56;;;;;;;0.63;0.47;;;;;;;20.55;35.65;98308.31;5110823;28;20048;-54
2022/01/09 01:27:21;;;;;;;0.73;0.50;;;;;;;20.56;35.55;98307.13;5110823;28;20050;-54
2022/01/09 01:29:47;;;;;;;1.10;0.70;;;;;;;20.56;35.48;98298.78;5111004;28;20545;-54
2022/01/09 01:32:12;;;;;;;0.82;0.50;;;;;;;20.55;35.46;98291.66;5111009;28;20491;-54
2022/01/09 01:34:38;;;;;;;1.00;0.60;;;;;;;20.56;35.51;98288.47;5110290;28;20055;-53
2022/01/09 01:37:03;;;;;;;0.90;0.47;;;;;;;20.56;35.54;98282.91;5110758;28;20048;-54
2022/01/09 01:39:29;;;;;;;0.68;0.40;;;;;;;20.55;35.60;98297.22;5110733;28;20048;-60
2022/01/09 01:41:54;;;;;;;0.90;0.60;;;;;;;20.57;35.59;98333.72;5110636;28;20130;-60
2022/01/09 01:44:19;;;;;;;0.70;0.50;;;;;;;20.57;35.60;98319.81;5110369;28;20044;-60
2022/01/09 01:46:45;;;;;;;0.85;0.60;;;;;;;20.57;35.59;98315.09;5110467;28;20036;-60
2022/01/09 01:49:11;;;;;;;0.82;0.60;;;;;;;20.57;35.65;98287.31;5110391;28;20051;-60
2022/01/09 01:51:41;;;;;;;0.93;0.63;;;;;;;20.56;35.90;98307.13;5110811;28;20418;-60
2022/01/09 01:54:09;;;;;;;0.80;0.50;;;;;;;20.56;35.72;98305.16;5110385;28;20280;-60
2022/01/09 01:56:34;;;;;;;1.10;0.57;;;;;;;20.57;35.75;98303.16;5110567;28;20176;-54
2022/01/09 01:59:00;;;;;;;1.08;0.60;;;;;;;20.55;35.73;98275.00;5110556;28;20130;-54
2022/01/09 02:01:25;;;;;;;1.40;0.77;;;;;;;20.56;35.76;98285.69;5110450;28;20116;-54
2022/01/09 02:03:51;;;;;;;1.08;0.73;;;;;;;20.55;35.64;98278.56;5110333;28;20044;-53
2022/01/09 02:06:17;;;;;;;0.73;0.50;;;;;;;20.55;35.84;98281.34;5110424;28;20051;-54
2022/01/09 02:08:43;;;;;;;0.68;0.60;;;;;;;20.55;35.76;98253.56;5110360;28;20521;-54
2022/01/09 02:11:12;;;;;;;0.73;0.50;;;;;;;20.55;35.81;98284.13;5110180;28;20127;-54
2022/01/09 02:13:40;;;;;;;1.25;0.70;;;;;;;20.56;35.78;98288.47;5109985;28;20105;-54
2022/01/09 02:16:07;;;;;;;1.10;0.60;;;;;;;20.56;35.61;98307.13;5109658;28;20070;-55
2022/01/09 02:18:33;;;;;;;1.42;0.65;;;;;;;20.55;35.63;98317.44;5109814;28;20035;-54
2022/01/09 02:20:59;;;;;;;0.90;0.52;;;;;;;20.56;35.69;98349.59;5109818;28;20047;-55
2022/01/09 02:23:25;;;;;;;1.42;0.82;;;;;;;20.53;35.66;98322.63;5109649;28;20039;-54
2022/01/09 02:25:51;;;;;;;1.45;0.80;;;;;;;20.56;35.66;98437.69;5109762;28;20039;-54
2022/01/09 02:28:17;;;;;;;1.65;0.80;;;;;;;20.57;35.85;98428.16;5109691;28;20058;-54
2022/01/09 02:30:44;;;;;;;1.42;0.80;;;;;;;20.55;35.86;98458.34;5108961;28;20054;-53
2022/01/09 02:33:14;;;;;;;1.48;0.77;;;;;;;20.55;35.86;98483.34;5109591;28;20036;-54
2022/01/09 02:35:39;;;;;;;1.25;0.50;;;;;;;20.56;35.61;98457.16;5109194;28;20121;-54
2022/01/09 02:38:06;;;;;;;0.98;0.70;;;;;;;20.56;35.70;98471.81;5109531;28;20434;-54
2022/01/09 02:40:32;;;;;;;0.68;0.50;;;;;;;20.55;35.47;98452.78;5109725;28;20047;-54
2022/01/09 02:42:58;;;;;;;1.52;0.75;;;;;;;20.56;35.67;98482.16;5109317;28;20454;-54
2022/01/09 02:45:26;;;;;;;1.33;0.70;;;;;;;20.55;35.58;98513.91;5109458;28;20051;-54
2022/01/09 02:47:54;;;;;;;0.88;0.57;;;;;;;20.55;35.40;98481.34;5109292;28;20120;-54
2022/01/09 02:52:52;;;;;;;0.95;0.60;;;;;;;20.55;35.48;98456.34;5109648;28;20108;-54
2022/01/09 02:55:19;;;;;;;0.30;0.28;;;;;;;20.55;35.42;98469.47;5108736;28;20048;-54
2022/01/09 02:57:50;;;;;;;0.75;0.52;;;;;;;20.55;35.31;98469.47;5109393;28;20104;-54
2022/01/09 03:00:19;;;;;;;1.25;0.50;;;;;;;20.56;35.08;98482.16;5109309;28;20106;-54
2022/01/09 03:02:45;;;;;;;0.88;0.52;;;;;;;20.54;35.13;98453.97;5109137;28;20169;-60
2022/01/09 03:05:12;;;;;;;0.82;0.50;;;;;;;20.56;35.17;98460.72;5109211;28;20118;-60
2022/01/09 03:07:39;;;;;;;1.02;0.50;;;;;;;20.55;35.15;98459.13;5109365;28;20530;-61
2022/01/09 03:10:05;;;;;;;1.65;0.50;;;;;;;20.55;35.08;98461.13;5109610;28;20039;-60
2022/01/09 03:12:31;;;;;;;0.82;0.50;;;;;;;20.54;34.87;98477.00;5109056;28;20168;-60
2022/01/09 03:14:56;;;;;;;0.43;0.30;;;;;;;20.54;35.01;98490.09;5108534;28;20122;-60
2022/01/09 03:17:22;;;;;;;0.38;0.30;;;;;;;20.52;34.84;98476.59;5109317;28;20113;-60
2022/01/09 03:19:47;;;;;;;1.00;0.40;;;;;;;20.52;35.04;98490.50;5109297;28;20392;-60
2022/01/09 03:22:12;;;;;;;0.88;0.40;;;;;;;20.54;35.03;98501.22;5109210;28;20420;-60
2022/01/09 03:24:38;;;;;;;0.75;0.45;;;;;;;20.53;34.82;98494.06;5109070;28;20044;-60
2022/01/09 03:27:04;;;;;;;0.47;0.40;;;;;;;20.54;35.06;98506.75;5109284;28;20042;-60
2022/01/09 03:29:29;;;;;;;0.30;0.30;;;;;;;20.52;35.07;98512.72;5109433;28;20116;-60
2022/01/09 03:31:55;;;;;;;0.98;0.50;;;;;;;20.53;34.90;98505.97;5109153;28;20663;-60
2022/01/09 03:34:20;;;;;;;0.45;0.38;;;;;;;20.53;34.96;98508.75;5108662;28;20055;-60
2022/01/09 03:36:46;;;;;;;0.45;0.20;;;;;;;20.50;34.90;98506.78;5111730;28;20130;-60
2022/01/09 03:39:11;;;;;;;0.30;0.28;;;;;;;20.53;34.96;98514.31;5112482;28;20059;-60
2022/01/09 03:41:37;;;;;;;1.02;0.40;;;;;;;20.53;34.87;98511.53;5112351;28;20449;-60
2022/01/09 03:44:03;;;;;;;0.50;0.40;;;;;;;20.53;35.07;98510.72;5112222;28;20125;-60
2022/01/09 03:46:28;;;;;;;0.50;0.30;;;;;;;20.53;34.80;98513.50;5112138;28;20070;-60
2022/01/09 03:48:53;;;;;;;0.40;0.32;;;;;;;20.53;34.83;98505.19;5112108;28;20048;-60
2022/01/09 03:51:21;;;;;;;0.40;0.30;;;;;;;20.51;34.89;98508.34;5112335;28;20067;-60
2022/01/09 03:53:46;;;;;;;0.35;0.28;;;;;;;20.52;34.89;98504.38;5112216;28;20495;-54
2022/01/09 03:56:12;;;;;;;0.73;0.47;;;;;;;20.52;34.81;98500.81;5093372;28;20113;-53
2022/01/09 03:58:37;;;;;;;0.50;0.30;;;;;;;20.53;34.79;98507.97;5112073;28;20104;-54
2022/01/09 04:01:06;;;;;;;0.25;0.22;;;;;;;20.51;34.89;98507.56;5112111;28;20044;-54
2022/01/09 04:03:33;;;;;;;0.90;0.30;;;;;;;20.52;34.97;98511.94;5111951;28;20052;-60
2022/01/09 04:06:00;;;;;;;0.75;0.30;;;;;;;20.53;34.93;98577.41;5112066;28;20126;-54
2022/01/09 04:08:26;;;;;;;0.32;0.20;;;;;;;20.52;34.86;98465.50;5111899;28;20414;-54
2022/01/09 04:10:52;;;;;;;0.30;0.20;;;;;;;20.51;35.10;98552.81;5111844;28;20036;-54
2022/01/09 04:13:17;;;;;;;0.32;0.30;;;;;;;20.52;35.01;98498.81;5111648;28;20135;-53
2022/01/09 04:15:48;;;;;;;0.28;0.25;;;;;;;20.51;34.90;98513.91;5111308;28;20067;-54
2022/01/09 04:18:19;;;;;;;0.30;0.28;;;;;;;20.49;34.89;98493.25;5111703;28;20090;-55
2022/01/09 04:20:45;;;;;;;0.60;0.40;;;;;;;20.52;34.80;98534.16;5111712;28;20909;-55
2022/01/09 04:23:12;;;;;;;0.57;0.38;;;;;;;20.51;34.76;98508.34;5111389;28;20263;-55
2022/01/09 04:25:38;;;;;;;0.70;0.40;;;;;;;20.51;34.68;98522.25;5111662;28;20534;-53
2022/01/09 04:28:04;;;;;;;0.43;0.30;;;;;;;20.50;34.81;98501.22;5111531;28;20040;-54
2022/01/09 04:30:29;;;;;;;0.30;0.25;;;;;;;20.53;34.72;98511.53;5111418;28;20117;-53
2022/01/09 04:32:55;;;;;;;0.35;0.20;;;;;;;20.71;34.35;98503.19;5111198;28;20131;-54
2022/01/09 04:35:21;;;;;;;0.30;0.30;;;;;;;20.76;34.25;98513.94;5110759;28;20092;-60
2022/01/09 04:37:48;;;;;;;0.30;0.20;;;;;;;20.77;34.44;98523.84;5110916;28;20048;-60
2022/01/09 04:40:15;;;;;;;0.55;0.30;;;;;;;20.73;34.22;98509.16;5110434;28;20048;-60
2022/01/09 04:42:45;;;;;;;0.30;0.25;;;;;;;20.74;34.43;98516.31;5111222;28;20047;-60
2022/01/09 04:45:12;;;;;;;0.32;0.20;;;;;;;20.74;34.57;98521.09;5111271;28;20050;-60
2022/01/09 04:47:40;;;;;;;0.30;0.20;;;;;;;20.71;34.35;98564.34;5111021;28;20502;-60
2022/01/09 04:50:08;;;;;;;0.57;0.25;;;;;;;20.70;34.51;98609.19;5111304;28;20162;-60
2022/01/09 04:52:37;;;;;;;0.38;0.10;;;;;;;20.69;34.38;98632.63;5111318;28;20130;-54
2022/01/09 04:55:02;;;;;;;1.77;0.30;;;;;;;20.68;34.53;98634.59;5111063;28;20046;-54
2022/01/09 04:57:28;;;;;;;0.20;0.20;;;;;;;20.65;34.53;98582.59;5111292;28;20048;-54
2022/01/09 04:59:53;;;;;;;0.32;0.20;;;;;;;20.66;34.35;98575.84;5111503;28;20054;-54
2022/01/09 05:02:19;;;;;;;0.28;0.20;;;;;;;20.65;34.48;98588.16;5111345;28;20048;-54
2022/01/09 05:04:44;;;;;;;0.20;0.20;;;;;;;20.66;34.47;98611.19;5092702;28;20043;-54
2022/01/09 05:07:10;;;;;;;0.80;0.32;;;;;;;20.63;34.23;98582.19;5111205;28;20503;-54
2022/01/09 05:09:35;;;;;;;0.57;0.22;;;;;;;20.63;34.31;98596.06;5111180;28;20047;-53
2022/01/09 05:12:00;;;;;;;0.22;0.20;;;;;;;20.60;34.31;98586.56;5111068;28;20047;-54
2022/01/09 05:14:26;;;;;;;0.40;0.20;;;;;;;20.63;34.25;98573.84;5111075;28;20047;-54
2022/01/09 05:16:51;;;;;;;0.60;0.30;;;;;;;20.61;34.24;98581.78;5111012;28;20040;-54
2022/01/09 05:19:20;;;;;;;0.40;0.28;;;;;;;20.60;33.96;98586.56;5111264;28;20499;-54
2022/01/09 05:21:46;;;;;;;0.50;0.30;;;;;;;20.59;34.16;98578.63;5111304;28;20466;-60
2022/01/09 05:24:12;;;;;;;0.63;0.30;;;;;;;20.59;34.05;98578.63;5111163;28;20036;-60
2022/01/09 05:26:37;;;;;;;0.45;0.30;;;;;;;20.59;34.07;98578.63;5111101;28;20043;-60
2022/01/09 05:29:03;;;;;;;0.30;0.20;;;;;;;20.59;33.88;98584.19;5111492;28;20047;-61
2022/01/09 05:31:29;;;;;;;0.35;0.22;;;;;;;20.58;33.81;98593.69;5111548;28;20054;-61
2022/01/09 05:33:54;;;;;;;0.73;0.32;;;;;;;20.58;33.88;98582.59;5108838;28;20423;-54
2022/01/09 05:36:20;;;;;;;0.60;0.20;;;;;;;20.59;33.86;98600.84;5110953;28;20036;-54
2022/01/09 05:38:45;;;;;;;0.45;0.25;;;;;;;20.57;33.79;98606.81;5110790;28;20052;-54
2022/01/09 05:41:11;;;;;;;0.45;0.30;;;;;;;20.58;33.98;98607.59;5111064;28;20046;-55
2022/01/09 05:43:39;;;;;;;0.80;0.17;;;;;;;20.57;33.93;98604.03;5110802;28;20100;-54
2022/01/09 05:46:04;;;;;;;0.57;0.20;;;;;;;20.57;33.82;98605.97;5110893;28;20042;-55
2022/01/09 05:48:29;;;;;;;0.38;0.20;;;;;;;20.57;33.81;98592.09;5110718;28;20131;-54
2022/01/09 05:50:55;;;;;;;0.30;0.15;;;;;;;20.57;33.88;98600.41;5110483;28;20438;-55
2022/01/09 05:53:20;;;;;;;0.50;0.28;;;;;;;20.55;34.00;98605.59;5110529;28;20047;-60
2022/01/09 05:55:46;;;;;;;0.00;0.00;;;;;;;20.54;33.87;98599.22;5110208;28;20404;-60
2022/01/09 05:58:11;;;;;;;0.20;0.13;;;;;;;20.56;33.98;98602.41;5110016;28;20047;-60
2022/01/09 06:00:37;;;;;;;0.52;0.20;;;;;;;20.54;34.02;98588.13;5110723;28;20043;-60
2022/01/09 06:03:02;;;;;;;0.40;0.30;;;;;;;20.53;33.86;98588.53;5110608;28;20410;-60
2022/01/09 06:05:27;;;;;;;0.10;0.10;;;;;;;20.54;33.94;98596.44;5110213;28;20035;-60
2022/01/09 06:07:53;;;;;;;0.20;0.17;;;;;;;20.54;33.82;98593.69;5110473;28;20067;-60
2022/01/09 06:10:18;;;;;;;0.68;0.30;;;;;;;20.53;33.97;98585.75;5110195;28;20036;-60
2022/01/09 06:12:44;;;;;;;0.20;0.10;;;;;;;20.54;34.02;98592.88;5110102;28;20036;-60
2022/01/09 06:15:09;;;;;;;0.38;0.20;;;;;;;20.52;34.12;98592.50;5109879;28;20475;-55
2022/01/09 06:17:36;;;;;;;0.13;0.10;;;;;;;20.52;33.95;98607.16;5110108;28;20052;-54
2022/01/09 06:20:02;;;;;;;0.13;0.10;;;;;;;20.53;33.86;98596.84;5110358;28;20086;-55
2022/01/09 06:22:27;;;;;;;0.20;0.20;;;;;;;20.53;34.18;98603.19;5110101;28;20130;-54
2022/01/09 06:24:53;;;;;;;0.30;0.20;;;;;;;20.52;34.01;98593.28;5109920;28;20118;-54
2022/01/09 06:27:18;;;;;;;0.17;0.10;;;;;;;20.53;33.86;98599.63;5109968;28;20503;-54
2022/01/09 06:29:44;;;;;;;0.17;0.17;;;;;;;20.51;34.09;98596.47;5110087;28;20130;-54
2022/01/09 06:32:10;;;;;;;0.17;0.10;;;;;;;20.53;34.04;98596.84;5110236;28;20576;-54
2022/01/09 06:34:35;;;;;;;0.65;0.43;;;;;;;20.51;34.05;98588.91;5109873;28;20126;-54
2022/01/09 06:37:01;;;;;;;0.57;0.20;;;;;;;20.52;34.09;98584.94;5109682;28;20170;-54
2022/01/09 06:39:27;;;;;;;0.10;0.10;;;;;;;20.52;33.88;98582.16;5109972;28;20051;-54
2022/01/09 06:41:52;;;;;;;0.20;0.20;;;;;;;20.52;34.05;98587.72;5109838;28;20097;-54
2022/01/09 06:44:18;;;;;;;0.10;0.10;;;;;;;20.61;34.09;98584.56;5109655;28;20089;-53
2022/01/09 06:46:43;;;;;;;0.30;0.20;;;;;;;20.83;33.73;98586.19;5109847;28;20065;-53
2022/01/09 06:49:09;;;;;;;0.73;0.22;;;;;;;20.86;33.59;98601.31;5109826;28;20100;-54
2022/01/09 06:51:35;;;;;;;0.32;0.20;;;;;;;20.84;33.44;98600.88;5109783;28;20117;-54
2022/01/09 06:54:00;;;;;;;0.20;0.20;;;;;;;20.78;33.51;98608.81;5109543;28;20127;-54
2022/01/09 06:56:26;;;;;;;0.10;0.10;;;;;;;20.79;33.59;98624.31;5109434;28;20445;-54
2022/01/09 06:58:51;;;;;;;0.20;0.20;;;;;;;20.75;33.67;98614.38;5109588;28;20529;-54
2022/01/09 07:01:17;;;;;;;0.25;0.10;;;;;;;20.74;33.69;98613.59;5109972;28;20047;-54
2022/01/09 07:03:42;;;;;;;0.55;0.20;;;;;;;20.71;33.86;98599.66;5109660;28;20047;-54
2022/01/09 07:06:08;;;;;;;0.20;0.10;;;;;;;20.70;33.78;98589.75;5091108;28;20051;-54
2022/01/09 07:08:34;;;;;;;0.13;0.10;;;;;;;20.69;33.68;98611.19;5109493;28;20027;-54
2022/01/09 07:11:02;;;;;;;0.20;0.20;;;;;;;20.67;33.76;98599.66;5108294;28;20483;-54
2022/01/09 07:13:30;;;;;;;0.10;0.10;;;;;;;20.67;33.74;98616.34;5109488;28;20073;-54
2022/01/09 07:15:56;;;;;;;0.10;0.10;;;;;;;20.67;34.02;98610.00;5108935;28;20086;-54
2022/01/09 07:18:22;;;;;;;0.75;0.20;;;;;;;20.64;33.77;98608.78;5109349;28;20039;-55
2022/01/09 07:20:47;;;;;;;0.17;0.10;;;;;;;20.64;33.97;98611.56;5109454;28;20055;-54
2022/01/09 07:23:13;;;;;;;0.10;0.10;;;;;;;20.64;33.97;98596.88;5109102;28;20039;-54
2022/01/09 07:25:38;;;;;;;0.10;0.10;;;;;;;20.62;33.88;98600.03;5109138;28;20040;-54
2022/01/09 07:28:03;;;;;;;0.17;0.10;;;;;;;20.61;33.89;98598.47;5109242;28;20043;-54
2022/01/09 07:30:30;;;;;;;0.15;0.10;;;;;;;20.61;33.92;98604.81;5108994;28;20063;-54
2022/01/09 07:32:56;;;;;;;0.15;0.13;;;;;;;20.62;33.92;98602.81;5109169;28;20050;-54
2022/01/09 07:35:22;;;;;;;0.10;0.10;;;;;;;20.60;33.96;98594.09;5108771;28;20130;-54
2022/01/09 07:37:48;;;;;;;0.10;0.10;;;;;;;20.60;33.71;98616.31;5108878;28;20131;-54
2022/01/09 07:40:14;;;;;;;0.20;0.20;;;;;;;20.59;33.74;98609.19;5109130;28;20073;-53
2022/01/09 07:42:39;;;;;;;0.30;0.20;;;;;;;20.59;33.90;98603.63;5108933;28;20414;-54
2022/01/09 07:45:08;;;;;;;0.40;0.20;;;;;;;20.58;33.99;98602.81;5108875;28;20046;-54
2022/01/09 07:47:37;;;;;;;0.25;0.17;;;;;;;20.57;33.82;98606.81;5109114;28;20044;-54
2022/01/09 07:50:09;;;;;;;0.20;0.20;;;;;;;20.57;33.99;98612.34;5108805;28;20047;-54
2022/01/09 07:52:36;;;;;;;0.20;0.20;;;;;;;20.57;33.98;98611.53;5109085;28;20044;-54
2022/01/09 07:55:03;;;;;;;0.60;0.20;;;;;;;20.56;33.86;98598.84;5108722;28;20040;-53
2022/01/09 07:57:29;;;;;;;0.22;0.20;;;;;;;20.54;33.94;98596.44;5108723;28;20059;-54
2022/01/09 07:59:56;;;;;;;0.32;0.20;;;;;;;20.57;33.71;98611.53;5109036;28;20051;-54
2022/01/09 08:02:22;;;;;;;0.15;0.10;;;;;;;20.56;33.71;98607.97;5108783;28;20048;-54
2022/01/09 08:04:47;;;;;;;0.15;0.10;;;;;;;20.55;33.85;98619.47;5108200;28;20051;-54
2022/01/09 08:07:13;;;;;;;0.10;0.10;;;;;;;20.55;33.67;98620.25;5108413;28;20040;-53
2022/01/09 08:09:39;;;;;;;0.22;0.20;;;;;;;20.55;33.95;98625.03;5108514;28;20135;-54
2022/01/09 08:12:06;;;;;;;0.10;0.10;;;;;;;20.55;33.71;98616.69;5107949;28;20044;-52
2022/01/09 08:14:31;;;;;;;0.22;0.20;;;;;;;20.54;33.83;98620.66;5107887;28;20059;-54
2022/01/09 08:16:59;;;;;;;0.30;0.30;;;;;;;20.54;33.95;98617.88;5107770;28;20498;-54
2022/01/09 08:19:24;;;;;;;0.35;0.30;;;;;;;20.53;33.81;98608.75;5108309;28;20051;-53
2022/01/09 08:21:50;;;;;;;0.32;0.20;;;;;;;20.54;33.76;98617.88;5109842;28;20407;-54
2022/01/09 08:24:15;;;;;;;0.30;0.20;;;;;;;20.53;33.92;98599.63;5111061;28;20040;-54
2022/01/09 08:26:41;;;;;;;0.20;0.20;;;;;;;20.53;33.60;98605.19;5111778;28;20565;-54
2022/01/09 08:29:06;;;;;;;0.88;0.40;;;;;;;20.53;33.93;98596.84;5111793;28;20130;-54
2022/01/09 08:31:32;;;;;;;0.40;0.20;;;;;;;20.51;33.95;98591.69;5111601;28;20230;-61
2022/01/09 08:33:57;;;;;;;0.38;0.30;;;;;;;20.52;33.77;98593.28;5111496;28;20047;-60
2022/01/09 08:36:23;;;;;;;0.63;0.30;;;;;;;20.51;33.71;98588.91;5110893;28;20055;-60
2022/01/09 08:38:48;;;;;;;0.50;0.30;;;;;;;20.52;33.90;98593.28;5111552;28;20036;-60
2022/01/09 08:41:14;;;;;;;0.25;0.25;;;;;;;20.52;33.96;98584.94;5093112;28;20040;-60
2022/01/09 08:43:39;;;;;;;0.32;0.20;;;;;;;20.52;33.80;98593.28;5111415;28;20067;-61
2022/01/09 08:46:05;;;;;;;0.35;0.30;;;;;;;20.52;34.08;98595.25;5111136;28;20040;-54
2022/01/09 08:48:31;;;;;;;0.22;0.20;;;;;;;20.53;33.99;98596.84;5111370;28;20040;-52
2022/01/09 08:50:56;;;;;;;0.38;0.30;;;;;;;20.52;33.99;98590.50;5111273;28;20044;-54
2022/01/09 08:53:22;;;;;;;0.47;0.30;;;;;;;20.51;34.09;98591.69;5111173;28;20051;-55
2022/01/09 08:55:48;;;;;;;0.60;0.30;;;;;;;20.52;34.10;98592.50;5110536;28;20070;-55
2022/01/09 08:58:13;;;;;;;0.60;0.43;;;;;;;20.53;33.95;98588.53;5111344;28;20542;-54
2022/01/09 09:00:39;;;;;;;0.82;0.40;;;;;;;20.52;33.91;98587.72;5111521;28;20186;-54
2022/01/09 09:03:04;;;;;;;0.43;0.30;;;;;;;20.51;33.96;98586.13;5111502;28;20047;-54
2022/01/09 09:05:30;;;;;;;0.52;0.40;;;;;;;20.53;34.11;98602.41;5111067;28;20035;-60
2022/01/09 09:07:57;;;;;;;0.60;0.40;;;;;;;20.52;34.14;98592.50;5111465;28;20384;-60
2022/01/09 09:10:23;;;;;;;0.82;0.40;;;;;;;20.51;34.00;98585.34;5111306;28;20047;-60
2022/01/09 09:12:48;;;;;;;0.63;0.40;;;;;;;20.51;34.04;98585.34;5111164;28;20032;-60
2022/01/09 09:15:14;;;;;;;0.70;0.40;;;;;;;20.52;34.17;98582.16;5110528;28;20074;-60
2022/01/09 09:17:39;;;;;;;0.80;0.50;;;;;;;20.53;34.19;98594.06;5110811;28;20048;-61
2022/01/09 09:20:06;;;;;;;0.70;0.50;;;;;;;20.50;34.09;98590.09;5111136;28;20036;-60
2022/01/09 09:22:31;;;;;;;0.40;0.40;;;;;;;20.52;34.17;98595.25;5110947;28;20039;-60
2022/01/09 09:24:57;;;;;;;0.65;0.40;;;;;;;20.53;34.19;98594.06;5110863;28;20055;-60
2022/01/09 09:27:29;;;;;;;1.00;0.60;;;;;;;20.52;34.04;98598.03;5111193;28;20063;-60
2022/01/09 09:29:56;;;;;;;;;;;;;;;20.55;34.11;98600.81;5111574;28;20995;-60
2022/01/09 09:32:21;;;;;;;0.93;0.60;;;;;;;20.51;34.24;98585.34;5110506;28;19916;-60
2022/01/09 09:34:47;;;;;;;0.80;0.47;;;;;;;20.49;34.02;98594.06;5110038;28;20089;-54
2022/01/09 09:37:12;;;;;;;1.23;0.70;;;;;;;20.50;34.23;98592.06;5110369;28;20138;-55
2022/01/09 09:39:38;;;;;;;1.10;0.60;;;;;;;20.51;34.11;98596.47;5110740;28;20067;-54
2022/01/09 09:42:03;;;;;;;0.60;0.43;;;;;;;20.48;34.22;98589.69;5110475;28;20126;-54
2022/01/09 09:44:29;;;;;;;0.70;0.50;;;;;;;20.48;34.22;98577.78;5110422;28;20047;-54
2022/01/09 09:46:55;;;;;;;0.75;0.50;;;;;;;20.51;34.00;98590.91;5110455;28;20119;-55
2022/01/09 09:49:22;;;;;;;0.75;0.50;;;;;;;20.47;34.17;98570.63;5110336;28;20051;-53
2022/01/09 09:51:47;;;;;;;0.70;0.45;;;;;;;20.48;34.11;98569.44;5110276;28;20550;-54
2022/01/09 09:54:13;;;;;;;0.93;0.50;;;;;;;20.49;34.22;98562.69;5110195;28;20051;-53
2022/01/09 09:56:39;;;;;;;1.13;0.60;;;;;;;20.49;34.26;98569.03;5109723;28;20082;-60
2022/01/09 09:59:04;;;;;;;0.73;0.50;;;;;;;20.49;34.21;98565.47;5110534;28;20063;-60
2022/01/09 10:01:32;;;;;;;0.73;0.40;;;;;;;20.51;34.09;98557.56;5110244;28;20052;-60
2022/01/09 10:04:16;;;;;;;0.52;0.40;;;;;;;20.51;34.15;98565.91;5109842;28;20131;-60
2022/01/09 10:06:44;;;;;;;0.65;0.40;;;;;;;20.51;34.04;98569.47;5091929;28;20062;-60
2022/01/09 10:09:15;;;;;;;1.00;0.50;;;;;;;20.49;34.20;98565.47;5110137;28;20093;-60
2022/01/09 10:11:52;;;;;;;0.43;0.40;;;;;;;20.49;34.21;98582.94;5109823;28;20487;-60
2022/01/09 10:14:38;;;;;;;1.10;0.60;;;;;;;20.49;34.10;98579.38;5109942;28;20088;-61
2022/01/09 10:17:16;;;;;;;1.00;0.60;;;;;;;20.50;34.33;98581.78;5109141;28;20081;-60
2022/01/09 10:19:45;;;;;;;0.85;0.40;;;;;;;20.48;34.28;98584.13;5109986;28;20121;-60
2022/01/09 10:22:33;;;;;;;0.70;0.50;;;;;;;20.49;34.32;98579.38;5109738;28;20044;-60
2022/01/09 10:25:17;;;;;;;1.13;0.55;;;;;;;20.48;34.25;98575.00;5109585;28;20044;-60
2022/01/09 10:27:44;;;;;;;1.10;0.52;;;;;;;20.48;34.17;98581.34;5109944;28;20503;-60
2022/01/09 10:30:10;;;;;;;0.88;0.60;;;;;;;20.49;34.22;98588.50;5109783;28;20042;-60
2022/01/09 10:32:36;;;;;;;0.80;0.43;;;;;;;20.60;34.36;98585.75;5109616;28;20048;-60
2022/01/09 10:35:14;;;;;;;1.30;0.57;;;;;;;20.78;34.08;98574.66;5109580;28;20419;-60
2022/01/09 10:37:42;;;;;;;0.98;0.57;;;;;;;20.86;33.86;98579.06;5109415;28;20051;-60
2022/01/09 10:40:10;;;;;;;0.85;0.50;;;;;;;20.83;33.64;98579.84;5109479;28;20062;-60
2022/01/09 10:42:37;;;;;;;0.93;0.55;;;;;;;20.80;33.74;98573.09;5109655;28;20036;-60
2022/01/09 10:45:46;;;;;;;0.80;0.60;;;;;;;20.77;34.11;98590.53;5109197;28;20108;-60
2022/01/09 10:48:23;;;;;;;1.08;0.60;;;;;;;20.74;33.92;98577.44;5047577;28;20088;-55
2022/01/09 10:50:50;;;;;;;1.25;0.50;;;;;;;20.73;34.08;98580.63;5046811;28;20091;-54
2022/01/09 10:53:24;;;;;;;0.60;0.50;;;;;;;20.70;34.15;98584.97;5046770;28;20045;-54
2022/01/09 10:56:21;;;;;;;0.82;0.50;;;;;;;20.68;34.26;98570.69;5045063;28;20053;-53
2022/01/09 10:58:49;;;;;;;1.35;0.60;;;;;;;20.67;34.05;98574.66;5044935;28;20060;-54
2022/01/09 11:01:18;;;;;;;0.90;0.50;;;;;;;20.66;34.14;98570.28;5046337;28;20045;-55
2022/01/09 11:03:52;;;;;;;0.60;0.40;;;;;;;20.65;34.12;98574.28;5045997;28;20095;-54
2022/01/09 11:06:18;;;;;;;1.05;0.55;;;;;;;20.65;34.10;98573.47;5046095;28;20045;-54
2022/01/09 11:08:44;;;;;;;1.52;0.80;;;;;;;20.63;34.42;98582.19;5046324;28;20464;-54
2022/01/09 11:11:20;;;;;;;0.82;0.52;;;;;;;20.62;34.44;98575.03;5046138;28;20052;-54
2022/01/09 11:13:47;;;;;;;0.90;0.52;;;;;;;20.63;34.37;98573.84;5046332;28;20055;-54
2022/01/09 11:16:41;;;;;;;1.17;0.50;;;;;;;20.61;34.20;98567.91;5045291;28;20072;-54
2022/01/09 11:19:13;;;;;;;0.98;0.60;;;;;;;20.61;34.37;98565.91;5046052;28;20053;-54
2022/01/09 11:22:03;;;;;;;0.80;0.55;;;;;;;20.61;34.33;98565.91;5045889;28;20048;-60
2022/01/09 11:24:50;;;;;;;1.10;0.70;;;;;;;20.60;34.18;98564.31;5096384;28;20150;-60
2022/01/09 11:27:19;;;;;;;1.92;0.80;;;;;;;20.60;34.12;98569.88;5108695;28;20090;-60
2022/01/09 11:30:07;;;;;;;0.70;0.50;;;;;;;20.59;34.19;98556.38;5107665;28;20043;-60
2022/01/09 11:32:41;;;;;;;0.93;0.50;;;;;;;20.59;34.34;98548.84;5108705;28;20055;-60
2022/01/09 11:35:28;;;;;;;1.27;0.60;;;;;;;20.57;34.27;98540.13;5108229;28;20047;-60
2022/01/09 11:38:21;;;;;;;1.10;0.70;;;;;;;20.56;34.19;98540.50;5108335;28;20039;-60